sensor_id;sensor_type;location;lat;lon;timestamp;P1;durP1;ratioP1;P2;durP2;ratioP2
71679;SDS011;59512;42.662;23.254;2022-08-21T00:00:19;13.90;;;7.53;;
71679;SDS011;59512;42.662;23.254;2022-08-21T00:02:49;14.10;;;7.65;;
71679;SDS011;59512;42.662;23.254;2022-08-21T00:05:15;17.10;;;8.93;;
71679;SDS011;59512;42.662;23.254;2022-08-21T00:07:41;21.20;;;9.20;;
71679;SDS011;59512;42.662;23.254;2022-08-21T00:10:06;18.88;;;8.90;;
71679;SDS011;59512;42.662;23.254;2022-08-21T00:12:31;17.60;;;9.53;;
71679;SDS011;59512;42.662;23.254;2022-08-21T00:14:57;18.10;;;9.67;;
71679;SDS011;59512;42.662;23.254;2022-08-21T00:17:22;15.30;;;8.33;;
71679;SDS011;59512;42.662;23.254;2022-08-21T00:19:48;14.52;;;7.35;;
71679;SDS011;59512;42.662;23.254;2022-08-21T00:22:13;18.43;;;9.73;;
71679;SDS011;59512;42.662;23.254;2022-08-21T00:24:39;19.83;;;10.87;;
71679;SDS011;59512;42.662;23.254;2022-08-21T00:27:04;14.87;;;9.23;;
71679;SDS011;59512;42.662;23.254;2022-08-21T00:29:29;16.37;;;8.67;;
71679;SDS011;59512;42.662;23.254;2022-08-21T00:31:54;16.53;;;8.93;;
71679;SDS011;59512;42.662;23.254;2022-08-21T00:34:20;19.23;;;10.00;;
71679;SDS011;59512;42.662;23.254;2022-08-21T00:36:45;19.27;;;10.50;;
71679;SDS011;59512;42.662;23.254;2022-08-21T00:39:10;17.20;;;9.67;;
71679;SDS011;59512;42.662;23.254;2022-08-21T00:41:36;18.57;;;9.27;;
71679;SDS011;59512;42.662;23.254;2022-08-21T00:44:03;17.40;;;8.45;;
71679;SDS011;59512;42.662;23.254;2022-08-21T00:46:29;17.48;;;9.60;;
71679;SDS011;59512;42.662;23.254;2022-08-21T00:48:54;18.13;;;9.30;;
71679;SDS011;59512;42.662;23.254;2022-08-21T00:51:21;14.75;;;8.30;;
71679;SDS011;59512;42.662;23.254;2022-08-21T00:53:58;16.92;;;8.52;;
71679;SDS011;59512;42.662;23.254;2022-08-21T00:56:24;15.33;;;7.00;;
71679;SDS011;59512;42.662;23.254;2022-08-21T00:58:50;13.90;;;7.00;;
71679;SDS011;59512;42.662;23.254;2022-08-21T01:01:16;13.18;;;6.80;;
71679;SDS011;59512;42.662;23.254;2022-08-21T01:03:41;14.30;;;6.30;;
71679;SDS011;59512;42.662;23.254;2022-08-21T01:06:07;15.00;;;6.20;;
71679;SDS011;59512;42.662;23.254;2022-08-21T01:08:33;13.43;;;6.65;;
71679;SDS011;59512;42.662;23.254;2022-08-21T01:10:58;11.85;;;5.10;;
71679;SDS011;59512;42.662;23.254;2022-08-21T01:13:24;11.20;;;3.78;;
71679;SDS011;59512;42.662;23.254;2022-08-21T01:15:51;9.90;;;4.70;;
71679;SDS011;59512;42.662;23.254;2022-08-21T01:18:17;11.75;;;5.07;;
71679;SDS011;59512;42.662;23.254;2022-08-21T01:20:44;13.68;;;5.50;;
71679;SDS011;59512;42.662;23.254;2022-08-21T01:23:10;11.18;;;5.07;;
71679;SDS011;59512;42.662;23.254;2022-08-21T01:25:36;10.23;;;4.53;;
71679;SDS011;59512;42.662;23.254;2022-08-21T01:28:02;10.07;;;5.40;;
71679;SDS011;59512;42.662;23.254;2022-08-21T01:30:29;13.27;;;6.07;;
71679;SDS011;59512;42.662;23.254;2022-08-21T01:32:56;14.93;;;5.40;;
71679;SDS011;59512;42.662;23.254;2022-08-21T01:35:21;13.23;;;6.10;;
71679;SDS011;59512;42.662;23.254;2022-08-21T01:37:47;12.10;;;6.10;;
71679;SDS011;59512;42.662;23.254;2022-08-21T01:40:13;12.15;;;6.07;;
71679;SDS011;59512;42.662;23.254;2022-08-21T01:42:38;14.17;;;6.10;;
71679;SDS011;59512;42.662;23.254;2022-08-21T01:45:05;14.32;;;5.95;;
71679;SDS011;59512;42.662;23.254;2022-08-21T01:47:30;17.08;;;6.45;;
71679;SDS011;59512;42.662;23.254;2022-08-21T01:49:56;10.52;;;5.30;;
71679;SDS011;59512;42.662;23.254;2022-08-21T01:52:21;13.38;;;5.63;;
71679;SDS011;59512;42.662;23.254;2022-08-21T01:54:46;12.27;;;5.67;;
71679;SDS011;59512;42.662;23.254;2022-08-21T01:57:12;11.50;;;5.10;;
71679;SDS011;59512;42.662;23.254;2022-08-21T01:59:37;11.20;;;5.20;;
71679;SDS011;59512;42.662;23.254;2022-08-21T02:02:04;11.10;;;5.05;;
71679;SDS011;59512;42.662;23.254;2022-08-21T02:04:29;12.30;;;4.97;;
71679;SDS011;59512;42.662;23.254;2022-08-21T02:06:55;11.95;;;4.85;;
71679;SDS011;59512;42.662;23.254;2022-08-21T02:09:20;10.50;;;4.57;;
71679;SDS011;59512;42.662;23.254;2022-08-21T02:11:46;10.55;;;4.00;;
71679;SDS011;59512;42.662;23.254;2022-08-21T02:14:12;12.00;;;5.37;;
71679;SDS011;59512;42.662;23.254;2022-08-21T02:16:39;13.77;;;5.32;;
71679;SDS011;59512;42.662;23.254;2022-08-21T02:19:04;12.70;;;5.60;;
71679;SDS011;59512;42.662;23.254;2022-08-21T02:21:30;9.60;;;5.40;;
71679;SDS011;59512;42.662;23.254;2022-08-21T02:23:55;10.90;;;5.13;;
71679;SDS011;59512;42.662;23.254;2022-08-21T02:26:20;10.65;;;4.97;;
71679;SDS011;59512;42.662;23.254;2022-08-21T02:28:46;9.43;;;4.57;;
71679;SDS011;59512;42.662;23.254;2022-08-21T02:31:11;8.77;;;4.77;;
71679;SDS011;59512;42.662;23.254;2022-08-21T02:33:37;10.97;;;5.30;;
71679;SDS011;59512;42.662;23.254;2022-08-21T02:36:04;12.35;;;5.53;;
71679;SDS011;59512;42.662;23.254;2022-08-21T02:38:30;12.48;;;5.93;;
71679;SDS011;59512;42.662;23.254;2022-08-21T02:40:58;12.80;;;5.73;;
71679;SDS011;59512;42.662;23.254;2022-08-21T02:43:24;14.82;;;5.93;;
71679;SDS011;59512;42.662;23.254;2022-08-21T02:45:50;14.20;;;6.43;;
71679;SDS011;59512;42.662;23.254;2022-08-21T02:48:17;14.43;;;5.78;;
71679;SDS011;59512;42.662;23.254;2022-08-21T02:50:45;14.48;;;5.82;;
71679;SDS011;59512;42.662;23.254;2022-08-21T02:53:12;12.13;;;5.80;;
71679;SDS011;59512;42.662;23.254;2022-08-21T02:55:41;14.50;;;5.90;;
71679;SDS011;59512;42.662;23.254;2022-08-21T02:58:07;12.20;;;6.53;;
71679;SDS011;59512;42.662;23.254;2022-08-21T03:00:33;13.60;;;6.20;;
71679;SDS011;59512;42.662;23.254;2022-08-21T03:02:59;15.20;;;5.80;;
71679;SDS011;59512;42.662;23.254;2022-08-21T03:05:25;14.93;;;6.35;;
71679;SDS011;59512;42.662;23.254;2022-08-21T03:07:51;13.00;;;6.33;;
71679;SDS011;59512;42.662;23.254;2022-08-21T03:10:17;11.07;;;5.40;;
71679;SDS011;59512;42.662;23.254;2022-08-21T03:12:44;13.95;;;5.78;;
71679;SDS011;59512;42.662;23.254;2022-08-21T03:15:11;12.00;;;5.30;;
71679;SDS011;59512;42.662;23.254;2022-08-21T03:17:37;12.25;;;5.10;;
71679;SDS011;59512;42.662;23.254;2022-08-21T03:20:03;10.73;;;5.40;;
71679;SDS011;59512;42.662;23.254;2022-08-21T03:22:29;12.73;;;5.13;;
71679;SDS011;59512;42.662;23.254;2022-08-21T03:24:54;11.67;;;4.40;;
71679;SDS011;59512;42.662;23.254;2022-08-21T03:27:19;12.60;;;5.20;;
71679;SDS011;59512;42.662;23.254;2022-08-21T03:29:45;11.90;;;5.13;;
71679;SDS011;59512;42.662;23.254;2022-08-21T03:32:10;11.07;;;4.97;;
71679;SDS011;59512;42.662;23.254;2022-08-21T03:34:36;11.43;;;5.13;;
71679;SDS011;59512;42.662;23.254;2022-08-21T03:37:02;12.15;;;5.07;;
71679;SDS011;59512;42.662;23.254;2022-08-21T03:39:27;11.70;;;5.80;;
71679;SDS011;59512;42.662;23.254;2022-08-21T03:41:52;9.60;;;5.18;;
71679;SDS011;59512;42.662;23.254;2022-08-21T03:44:18;10.13;;;4.80;;
71679;SDS011;59512;42.662;23.254;2022-08-21T03:46:43;10.53;;;4.23;;
71679;SDS011;59512;42.662;23.254;2022-08-21T03:49:09;11.80;;;5.23;;
71679;SDS011;59512;42.662;23.254;2022-08-21T03:51:34;14.57;;;5.07;;
71679;SDS011;59512;42.662;23.254;2022-08-21T03:54:00;10.05;;;4.70;;
71679;SDS011;59512;42.662;23.254;2022-08-21T03:56:25;12.03;;;4.90;;
71679;SDS011;59512;42.662;23.254;2022-08-21T03:58:51;15.10;;;5.97;;
71679;SDS011;59512;42.662;23.254;2022-08-21T04:01:16;12.03;;;5.33;;
71679;SDS011;59512;42.662;23.254;2022-08-21T04:03:41;15.07;;;5.53;;
71679;SDS011;59512;42.662;23.254;2022-08-21T04:06:07;11.43;;;4.97;;
71679;SDS011;59512;42.662;23.254;2022-08-21T04:08:32;12.63;;;4.88;;
71679;SDS011;59512;42.662;23.254;2022-08-21T04:10:58;11.68;;;5.50;;
71679;SDS011;59512;42.662;23.254;2022-08-21T04:13:24;13.67;;;6.10;;
71679;SDS011;59512;42.662;23.254;2022-08-21T04:15:51;12.77;;;5.45;;
71679;SDS011;59512;42.662;23.254;2022-08-21T04:18:17;15.10;;;6.33;;
71679;SDS011;59512;42.662;23.254;2022-08-21T04:20:42;13.43;;;5.70;;
71679;SDS011;59512;42.662;23.254;2022-08-21T04:23:08;17.40;;;6.18;;
71679;SDS011;59512;42.662;23.254;2022-08-21T04:25:34;11.27;;;5.20;;
71679;SDS011;59512;42.662;23.254;2022-08-21T04:27:59;11.30;;;4.93;;
71679;SDS011;59512;42.662;23.254;2022-08-21T04:30:25;13.57;;;5.40;;
71679;SDS011;59512;42.662;23.254;2022-08-21T04:32:50;14.48;;;5.45;;
71679;SDS011;59512;42.662;23.254;2022-08-21T04:35:18;13.47;;;5.67;;
71679;SDS011;59512;42.662;23.254;2022-08-21T04:37:44;12.13;;;5.13;;
71679;SDS011;59512;42.662;23.254;2022-08-21T04:40:10;15.50;;;5.60;;
71679;SDS011;59512;42.662;23.254;2022-08-21T04:42:46;15.05;;;6.47;;
71679;SDS011;59512;42.662;23.254;2022-08-21T04:45:20;15.63;;;6.53;;
71679;SDS011;59512;42.662;23.254;2022-08-21T04:47:47;14.53;;;6.83;;
71679;SDS011;59512;42.662;23.254;2022-08-21T04:50:12;13.68;;;6.35;;
71679;SDS011;59512;42.662;23.254;2022-08-21T04:52:38;15.10;;;6.37;;
71679;SDS011;59512;42.662;23.254;2022-08-21T04:55:03;14.23;;;7.00;;
71679;SDS011;59512;42.662;23.254;2022-08-21T04:57:29;14.32;;;6.50;;
71679;SDS011;59512;42.662;23.254;2022-08-21T04:59:54;12.23;;;6.87;;
71679;SDS011;59512;42.662;23.254;2022-08-21T05:02:19;15.63;;;7.93;;
71679;SDS011;59512;42.662;23.254;2022-08-21T05:04:49;17.00;;;8.18;;
71679;SDS011;59512;42.662;23.254;2022-08-21T05:07:20;17.20;;;8.63;;
71679;SDS011;59512;42.662;23.254;2022-08-21T05:09:46;16.73;;;8.00;;
71679;SDS011;59512;42.662;23.254;2022-08-21T05:12:11;18.63;;;8.47;;
71679;SDS011;59512;42.662;23.254;2022-08-21T05:14:37;17.20;;;8.45;;
71679;SDS011;59512;42.662;23.254;2022-08-21T05:17:02;19.80;;;8.60;;
71679;SDS011;59512;42.662;23.254;2022-08-21T05:19:29;19.17;;;9.27;;
71679;SDS011;59512;42.662;23.254;2022-08-21T05:21:54;18.97;;;9.30;;
71679;SDS011;59512;42.662;23.254;2022-08-21T05:24:20;21.37;;;8.57;;
71679;SDS011;59512;42.662;23.254;2022-08-21T05:26:45;16.40;;;8.13;;
71679;SDS011;59512;42.662;23.254;2022-08-21T05:29:11;15.07;;;8.25;;
71679;SDS011;59512;42.662;23.254;2022-08-21T05:31:37;17.50;;;8.40;;
71679;SDS011;59512;42.662;23.254;2022-08-21T05:34:02;16.23;;;7.90;;
71679;SDS011;59512;42.662;23.254;2022-08-21T05:36:27;18.70;;;8.40;;
71679;SDS011;59512;42.662;23.254;2022-08-21T05:38:53;16.53;;;8.23;;
71679;SDS011;59512;42.662;23.254;2022-08-21T05:41:18;16.83;;;8.38;;
71679;SDS011;59512;42.662;23.254;2022-08-21T05:43:44;19.08;;;6.93;;
71679;SDS011;59512;42.662;23.254;2022-08-21T05:46:09;14.77;;;7.30;;
71679;SDS011;59512;42.662;23.254;2022-08-21T05:48:35;18.53;;;8.50;;
71679;SDS011;59512;42.662;23.254;2022-08-21T05:51:04;15.37;;;8.27;;
71679;SDS011;59512;42.662;23.254;2022-08-21T05:53:29;15.80;;;7.47;;
71679;SDS011;59512;42.662;23.254;2022-08-21T05:55:54;16.07;;;7.67;;
71679;SDS011;59512;42.662;23.254;2022-08-21T05:58:20;13.23;;;6.60;;
71679;SDS011;59512;42.662;23.254;2022-08-21T06:00:46;17.60;;;7.72;;
71679;SDS011;59512;42.662;23.254;2022-08-21T06:03:13;16.93;;;8.00;;
71679;SDS011;59512;42.662;23.254;2022-08-21T06:05:39;19.45;;;8.68;;
71679;SDS011;59512;42.662;23.254;2022-08-21T06:08:04;16.83;;;8.20;;
71679;SDS011;59512;42.662;23.254;2022-08-21T06:10:29;18.50;;;8.73;;
71679;SDS011;59512;42.662;23.254;2022-08-21T06:12:55;18.13;;;7.97;;
71679;SDS011;59512;42.662;23.254;2022-08-21T06:15:20;12.93;;;7.00;;
71679;SDS011;59512;42.662;23.254;2022-08-21T06:17:45;13.67;;;7.30;;
71679;SDS011;59512;42.662;23.254;2022-08-21T06:20:10;12.90;;;6.07;;
71679;SDS011;59512;42.662;23.254;2022-08-21T06:22:36;16.33;;;6.47;;
71679;SDS011;59512;42.662;23.254;2022-08-21T06:25:01;11.73;;;5.77;;
71679;SDS011;59512;42.662;23.254;2022-08-21T06:27:26;14.20;;;5.60;;
71679;SDS011;59512;42.662;23.254;2022-08-21T06:29:51;12.27;;;4.97;;
71679;SDS011;59512;42.662;23.254;2022-08-21T06:32:17;15.33;;;5.03;;
71679;SDS011;59512;42.662;23.254;2022-08-21T06:34:42;13.27;;;5.50;;
71679;SDS011;59512;42.662;23.254;2022-08-21T06:37:07;10.43;;;5.30;;
71679;SDS011;59512;42.662;23.254;2022-08-21T06:39:33;13.37;;;5.40;;
71679;SDS011;59512;42.662;23.254;2022-08-21T06:41:58;10.73;;;4.77;;
71679;SDS011;59512;42.662;23.254;2022-08-21T06:44:24;11.35;;;5.22;;
71679;SDS011;59512;42.662;23.254;2022-08-21T06:46:49;11.53;;;5.27;;
71679;SDS011;59512;42.662;23.254;2022-08-21T06:49:15;13.97;;;5.70;;
71679;SDS011;59512;42.662;23.254;2022-08-21T06:51:40;12.27;;;6.43;;
71679;SDS011;59512;42.662;23.254;2022-08-21T06:54:05;11.23;;;5.70;;
71679;SDS011;59512;42.662;23.254;2022-08-21T06:56:31;12.10;;;5.83;;
71679;SDS011;59512;42.662;23.254;2022-08-21T06:58:58;11.23;;;5.80;;
71679;SDS011;59512;42.662;23.254;2022-08-21T07:01:24;16.93;;;6.50;;
71679;SDS011;59512;42.662;23.254;2022-08-21T07:03:50;12.52;;;6.18;;
71679;SDS011;59512;42.662;23.254;2022-08-21T07:06:15;13.07;;;6.17;;
71679;SDS011;59512;42.662;23.254;2022-08-21T07:08:40;17.23;;;6.47;;
71679;SDS011;59512;42.662;23.254;2022-08-21T07:11:11;12.27;;;6.63;;
71679;SDS011;59512;42.662;23.254;2022-08-21T07:13:37;15.43;;;7.68;;
71679;SDS011;59512;42.662;23.254;2022-08-21T07:16:02;18.03;;;8.97;;
71679;SDS011;59512;42.662;23.254;2022-08-21T07:18:27;15.73;;;8.53;;
71679;SDS011;59512;42.662;23.254;2022-08-21T07:20:53;20.00;;;8.67;;
71679;SDS011;59512;42.662;23.254;2022-08-21T07:23:22;15.65;;;7.95;;
71679;SDS011;59512;42.662;23.254;2022-08-21T07:25:49;17.65;;;9.13;;
71679;SDS011;59512;42.662;23.254;2022-08-21T07:28:15;17.45;;;7.50;;
71679;SDS011;59512;42.662;23.254;2022-08-21T07:30:40;13.97;;;6.70;;
71679;SDS011;59512;42.662;23.254;2022-08-21T07:33:05;13.53;;;7.30;;
71679;SDS011;59512;42.662;23.254;2022-08-21T07:35:31;14.20;;;7.13;;
71679;SDS011;59512;42.662;23.254;2022-08-21T07:37:58;14.95;;;6.80;;
71679;SDS011;59512;42.662;23.254;2022-08-21T07:40:23;12.73;;;6.93;;
71679;SDS011;59512;42.662;23.254;2022-08-21T07:42:49;14.03;;;7.53;;
71679;SDS011;59512;42.662;23.254;2022-08-21T07:45:16;14.38;;;7.60;;
71679;SDS011;59512;42.662;23.254;2022-08-21T07:47:42;15.32;;;7.30;;
71679;SDS011;59512;42.662;23.254;2022-08-21T07:50:07;12.60;;;7.37;;
71679;SDS011;59512;42.662;23.254;2022-08-21T07:52:33;13.43;;;5.60;;
71679;SDS011;59512;42.662;23.254;2022-08-21T07:54:59;16.38;;;7.20;;
71679;SDS011;59512;42.662;23.254;2022-08-21T07:57:24;14.83;;;6.73;;
71679;SDS011;59512;42.662;23.254;2022-08-21T07:59:49;15.63;;;7.70;;
71679;SDS011;59512;42.662;23.254;2022-08-21T08:02:21;12.30;;;6.73;;
71679;SDS011;59512;42.662;23.254;2022-08-21T08:04:47;12.30;;;6.88;;
71679;SDS011;59512;42.662;23.254;2022-08-21T08:07:12;16.03;;;6.73;;
71679;SDS011;59512;42.662;23.254;2022-08-21T08:09:38;12.82;;;6.90;;
71679;SDS011;59512;42.662;23.254;2022-08-21T08:12:03;12.73;;;6.80;;
71679;SDS011;59512;42.662;23.254;2022-08-21T08:14:29;14.33;;;6.90;;
71679;SDS011;59512;42.662;23.254;2022-08-21T08:16:54;15.27;;;7.80;;
71679;SDS011;59512;42.662;23.254;2022-08-21T08:19:19;12.83;;;6.87;;
71679;SDS011;59512;42.662;23.254;2022-08-21T08:21:45;14.02;;;6.93;;
71679;SDS011;59512;42.662;23.254;2022-08-21T08:24:10;15.35;;;7.47;;
71679;SDS011;59512;42.662;23.254;2022-08-21T08:26:35;16.20;;;8.50;;
71679;SDS011;59512;42.662;23.254;2022-08-21T08:29:01;14.83;;;8.60;;
71679;SDS011;59512;42.662;23.254;2022-08-21T08:31:26;16.37;;;7.13;;
71679;SDS011;59512;42.662;23.254;2022-08-21T08:33:52;17.40;;;8.05;;
71679;SDS011;59512;42.662;23.254;2022-08-21T08:36:17;14.85;;;8.18;;
71679;SDS011;59512;42.662;23.254;2022-08-21T08:38:43;14.67;;;8.17;;
71679;SDS011;59512;42.662;23.254;2022-08-21T08:41:13;13.60;;;7.45;;
71679;SDS011;59512;42.662;23.254;2022-08-21T08:43:39;13.80;;;6.82;;
71679;SDS011;59512;42.662;23.254;2022-08-21T08:46:07;12.40;;;7.03;;
71679;SDS011;59512;42.662;23.254;2022-08-21T08:48:41;14.02;;;7.07;;
71679;SDS011;59512;42.662;23.254;2022-08-21T08:51:13;18.23;;;7.07;;
71679;SDS011;59512;42.662;23.254;2022-08-21T08:53:50;12.30;;;6.35;;
71679;SDS011;59512;42.662;23.254;2022-08-21T08:56:18;11.20;;;5.50;;
71679;SDS011;59512;42.662;23.254;2022-08-21T08:58:43;10.88;;;5.85;;
71679;SDS011;59512;42.662;23.254;2022-08-21T09:01:14;11.40;;;5.35;;
71679;SDS011;59512;42.662;23.254;2022-08-21T09:03:41;11.45;;;5.30;;
71679;SDS011;59512;42.662;23.254;2022-08-21T09:08:54;19.23;;;6.43;;
71679;SDS011;59512;42.662;23.254;2022-08-21T09:11:28;11.93;;;5.53;;
71679;SDS011;59512;42.662;23.254;2022-08-21T09:21:52;11.88;;;5.90;;
71679;SDS011;59512;42.662;23.254;2022-08-21T09:24:26;12.95;;;6.30;;
71679;SDS011;59512;42.662;23.254;2022-08-21T09:29:20;13.07;;;5.80;;
71679;SDS011;59512;42.662;23.254;2022-08-21T09:31:48;11.73;;;5.90;;
71679;SDS011;59512;42.662;23.254;2022-08-21T09:34:23;10.77;;;5.68;;
71679;SDS011;59512;42.662;23.254;2022-08-21T09:36:49;14.75;;;5.78;;
71679;SDS011;59512;42.662;23.254;2022-08-21T09:39:26;11.25;;;5.95;;
71679;SDS011;59512;42.662;23.254;2022-08-21T09:41:59;12.95;;;5.68;;
71679;SDS011;59512;42.662;23.254;2022-08-21T09:44:27;12.40;;;6.03;;
71679;SDS011;59512;42.662;23.254;2022-08-21T09:46:53;14.40;;;5.65;;
71679;SDS011;59512;42.662;23.254;2022-08-21T09:49:35;11.97;;;5.43;;
71679;SDS011;59512;42.662;23.254;2022-08-21T09:52:01;11.25;;;4.80;;
71679;SDS011;59512;42.662;23.254;2022-08-21T09:54:31;11.85;;;5.13;;
71679;SDS011;59512;42.662;23.254;2022-08-21T09:57:04;11.80;;;5.03;;
71679;SDS011;59512;42.662;23.254;2022-08-21T09:59:48;12.73;;;5.05;;
71679;SDS011;59512;42.662;23.254;2022-08-21T10:02:27;13.27;;;5.00;;
71679;SDS011;59512;42.662;23.254;2022-08-21T10:04:55;9.20;;;4.70;;
71679;SDS011;59512;42.662;23.254;2022-08-21T10:07:22;12.30;;;5.05;;
71679;SDS011;59512;42.662;23.254;2022-08-21T10:09:57;10.82;;;5.15;;
71679;SDS011;59512;42.662;23.254;2022-08-21T10:12:24;10.48;;;4.60;;
71679;SDS011;59512;42.662;23.254;2022-08-21T10:14:56;10.38;;;4.50;;
71679;SDS011;59512;42.662;23.254;2022-08-21T10:17:32;11.30;;;5.25;;
71679;SDS011;59512;42.662;23.254;2022-08-21T10:22:38;8.85;;;4.25;;
71679;SDS011;59512;42.662;23.254;2022-08-21T10:25:09;10.13;;;4.63;;
71679;SDS011;59512;42.662;23.254;2022-08-21T10:27:55;11.27;;;4.88;;
71679;SDS011;59512;42.662;23.254;2022-08-21T10:30:30;11.13;;;4.30;;
71679;SDS011;59512;42.662;23.254;2022-08-21T10:40:24;9.35;;;4.32;;
71679;SDS011;59512;42.662;23.254;2022-08-21T10:48:24;14.10;;;4.65;;
71679;SDS011;59512;42.662;23.254;2022-08-21T10:50:55;13.20;;;4.78;;
71679;SDS011;59512;42.662;23.254;2022-08-21T10:58:45;12.35;;;4.82;;
71679;SDS011;59512;42.662;23.254;2022-08-21T11:01:24;15.95;;;5.38;;
71679;SDS011;59512;42.662;23.254;2022-08-21T11:06:33;8.63;;;5.00;;
71679;SDS011;59512;42.662;23.254;2022-08-21T11:09:08;10.73;;;4.47;;
71679;SDS011;59512;42.662;23.254;2022-08-21T11:11:36;10.48;;;4.13;;
71679;SDS011;59512;42.662;23.254;2022-08-21T11:14:08;13.55;;;4.80;;
71679;SDS011;59512;42.662;23.254;2022-08-21T11:19:08;8.63;;;4.35;;
71679;SDS011;59512;42.662;23.254;2022-08-21T11:21:54;10.05;;;4.60;;
71679;SDS011;59512;42.662;23.254;2022-08-21T11:24:29;9.93;;;4.95;;
71679;SDS011;59512;42.662;23.254;2022-08-21T11:27:18;18.52;;;9.20;;
71679;SDS011;59512;42.662;23.254;2022-08-21T11:29:53;10.15;;;5.25;;
71679;SDS011;59512;42.662;23.254;2022-08-21T11:45:54;13.32;;;5.60;;
71679;SDS011;59512;42.662;23.254;2022-08-21T11:48:27;10.60;;;4.85;;
71679;SDS011;59512;42.662;23.254;2022-08-21T11:50:56;8.77;;;4.15;;
71679;SDS011;59512;42.662;23.254;2022-08-21T11:56:10;9.98;;;4.40;;
71679;SDS011;59512;42.662;23.254;2022-08-21T11:58:41;11.52;;;4.80;;
71679;SDS011;59512;42.662;23.254;2022-08-21T12:01:11;10.35;;;4.30;;
71679;SDS011;59512;42.662;23.254;2022-08-21T12:03:41;7.88;;;4.18;;
71679;SDS011;59512;42.662;23.254;2022-08-21T12:06:09;9.63;;;4.40;;
71679;SDS011;59512;42.662;23.254;2022-08-21T12:11:04;12.30;;;5.17;;
71679;SDS011;59512;42.662;23.254;2022-08-21T12:13:30;11.80;;;4.72;;
71679;SDS011;59512;42.662;23.254;2022-08-21T12:16:12;7.90;;;4.45;;
71679;SDS011;59512;42.662;23.254;2022-08-21T12:18:38;9.30;;;4.35;;
71679;SDS011;59512;42.662;23.254;2022-08-21T12:21:17;9.77;;;4.83;;
71679;SDS011;59512;42.662;23.254;2022-08-21T12:23:46;11.35;;;4.70;;
71679;SDS011;59512;42.662;23.254;2022-08-21T12:29:14;10.82;;;4.93;;
71679;SDS011;59512;42.662;23.254;2022-08-21T12:31:47;10.70;;;4.88;;
71679;SDS011;59512;42.662;23.254;2022-08-21T12:34:12;10.25;;;4.60;;
71679;SDS011;59512;42.662;23.254;2022-08-21T12:36:48;10.32;;;4.45;;
71679;SDS011;59512;42.662;23.254;2022-08-21T12:39:20;9.98;;;4.93;;
71679;SDS011;59512;42.662;23.254;2022-08-21T12:41:48;11.23;;;4.80;;
71679;SDS011;59512;42.662;23.254;2022-08-21T12:44:16;12.43;;;4.80;;
71679;SDS011;59512;42.662;23.254;2022-08-21T12:46:50;11.77;;;4.78;;
71679;SDS011;59512;42.662;23.254;2022-08-21T12:49:24;9.65;;;4.30;;
71679;SDS011;59512;42.662;23.254;2022-08-21T12:54:45;8.70;;;4.07;;
71679;SDS011;59512;42.662;23.254;2022-08-21T12:57:21;9.27;;;4.40;;
71679;SDS011;59512;42.662;23.254;2022-08-21T12:59:51;9.50;;;4.65;;
71679;SDS011;59512;42.662;23.254;2022-08-21T13:02:18;10.98;;;4.47;;
71679;SDS011;59512;42.662;23.254;2022-08-21T13:04:45;10.60;;;5.18;;
71679;SDS011;59512;42.662;23.254;2022-08-21T13:07:12;9.88;;;4.78;;
71679;SDS011;59512;42.662;23.254;2022-08-21T13:09:44;9.63;;;4.68;;
71679;SDS011;59512;42.662;23.254;2022-08-21T13:12:11;9.65;;;4.38;;
71679;SDS011;59512;42.662;23.254;2022-08-21T13:14:38;9.38;;;4.40;;
71679;SDS011;59512;42.662;23.254;2022-08-21T13:17:05;10.85;;;4.57;;
71679;SDS011;59512;42.662;23.254;2022-08-21T13:19:31;11.73;;;5.00;;
71679;SDS011;59512;42.662;23.254;2022-08-21T13:21:56;9.82;;;4.70;;
71679;SDS011;59512;42.662;23.254;2022-08-21T13:24:29;8.00;;;3.97;;
71679;SDS011;59512;42.662;23.254;2022-08-21T13:26:55;10.98;;;4.60;;
71679;SDS011;59512;42.662;23.254;2022-08-21T13:29:22;11.40;;;5.13;;
71679;SDS011;59512;42.662;23.254;2022-08-21T13:31:49;10.57;;;4.72;;
71679;SDS011;59512;42.662;23.254;2022-08-21T13:34:17;10.75;;;5.07;;
71679;SDS011;59512;42.662;23.254;2022-08-21T13:36:43;10.95;;;4.40;;
71679;SDS011;59512;42.662;23.254;2022-08-21T13:39:12;11.43;;;4.80;;
71679;SDS011;59512;42.662;23.254;2022-08-21T13:41:38;12.48;;;4.78;;
71679;SDS011;59512;42.662;23.254;2022-08-21T13:44:17;12.00;;;4.88;;
71679;SDS011;59512;42.662;23.254;2022-08-21T13:46:42;8.30;;;4.07;;
71679;SDS011;59512;42.662;23.254;2022-08-21T13:49:09;11.18;;;4.53;;
71679;SDS011;59512;42.662;23.254;2022-08-21T13:51:35;9.27;;;4.85;;
71679;SDS011;59512;42.662;23.254;2022-08-21T13:54:00;10.43;;;4.37;;
71679;SDS011;59512;42.662;23.254;2022-08-21T13:56:27;8.95;;;4.40;;
71679;SDS011;59512;42.662;23.254;2022-08-21T13:58:53;7.80;;;4.27;;
71679;SDS011;59512;42.662;23.254;2022-08-21T14:03:45;13.25;;;4.70;;
71679;SDS011;59512;42.662;23.254;2022-08-21T14:06:21;10.97;;;4.73;;
71679;SDS011;59512;42.662;23.254;2022-08-21T14:08:51;13.38;;;4.75;;
71679;SDS011;59512;42.662;23.254;2022-08-21T14:11:18;9.70;;;4.30;;
71679;SDS011;59512;42.662;23.254;2022-08-21T14:14:05;10.37;;;4.60;;
71679;SDS011;59512;42.662;23.254;2022-08-21T14:16:41;9.00;;;4.70;;
71679;SDS011;59512;42.662;23.254;2022-08-21T14:19:09;12.10;;;4.80;;
71679;SDS011;59512;42.662;23.254;2022-08-21T14:21:41;11.63;;;5.05;;
71679;SDS011;59512;42.662;23.254;2022-08-21T14:26:37;12.35;;;4.95;;
71679;SDS011;59512;42.662;23.254;2022-08-21T14:29:09;10.40;;;4.93;;
71679;SDS011;59512;42.662;23.254;2022-08-21T14:31:34;11.13;;;5.20;;
71679;SDS011;59512;42.662;23.254;2022-08-21T14:34:00;14.17;;;5.53;;
71679;SDS011;59512;42.662;23.254;2022-08-21T14:36:26;13.32;;;5.68;;
71679;SDS011;59512;42.662;23.254;2022-08-21T14:38:51;14.30;;;5.93;;
71679;SDS011;59512;42.662;23.254;2022-08-21T14:41:18;12.45;;;6.60;;
71679;SDS011;59512;42.662;23.254;2022-08-21T14:43:44;10.60;;;5.67;;
71679;SDS011;59512;42.662;23.254;2022-08-21T14:46:10;13.02;;;5.75;;
71679;SDS011;59512;42.662;23.254;2022-08-21T14:48:36;10.43;;;5.78;;
71679;SDS011;59512;42.662;23.254;2022-08-21T14:51:01;11.43;;;5.60;;
71679;SDS011;59512;42.662;23.254;2022-08-21T14:53:27;10.67;;;5.80;;
71679;SDS011;59512;42.662;23.254;2022-08-21T14:55:53;17.03;;;6.07;;
71679;SDS011;59512;42.662;23.254;2022-08-21T14:58:31;12.52;;;5.95;;
71679;SDS011;59512;42.662;23.254;2022-08-21T15:00:57;13.93;;;5.68;;
71679;SDS011;59512;42.662;23.254;2022-08-21T15:03:23;9.77;;;5.33;;
71679;SDS011;59512;42.662;23.254;2022-08-21T15:05:48;9.63;;;5.38;;
71679;SDS011;59512;42.662;23.254;2022-08-21T15:08:14;10.15;;;5.15;;
71679;SDS011;59512;42.662;23.254;2022-08-21T15:10:40;14.20;;;5.00;;
71679;SDS011;59512;42.662;23.254;2022-08-21T15:13:06;10.47;;;5.03;;
71679;SDS011;59512;42.662;23.254;2022-08-21T15:15:41;10.73;;;4.90;;
71679;SDS011;59512;42.662;23.254;2022-08-21T15:18:07;11.82;;;5.25;;
71679;SDS011;59512;42.662;23.254;2022-08-21T15:20:33;10.53;;;5.10;;
71679;SDS011;59512;42.662;23.254;2022-08-21T15:22:58;13.75;;;5.65;;
71679;SDS011;59512;42.662;23.254;2022-08-21T15:25:24;13.17;;;5.97;;
71679;SDS011;59512;42.662;23.254;2022-08-21T15:27:49;19.03;;;5.80;;
71679;SDS011;59512;42.662;23.254;2022-08-21T15:30:15;12.00;;;5.38;;
71679;SDS011;59512;42.662;23.254;2022-08-21T15:32:40;8.75;;;5.28;;